sensor_id;sensor_type;location;lat;lon;timestamp;P1;durP1;ratioP1;P2;durP2;ratioP2
61702;SDS011;47622;47.726;3.298;2023-08-12T00:01:49;7.25;;;3.80;;
61702;SDS011;47622;47.726;3.298;2023-08-12T00:04:14;8.40;;;4.18;;
61702;SDS011;47622;47.726;3.298;2023-08-12T00:06:41;11.88;;;4.28;;
61702;SDS011;47622;47.726;3.298;2023-08-12T00:09:09;7.70;;;4.07;;
61702;SDS011;47622;47.726;3.298;2023-08-12T00:11:40;6.68;;;4.15;;
61702;SDS011;47622;47.726;3.298;2023-08-12T00:14:05;5.03;;;3.78;;
61702;SDS011;47622;47.726;3.298;2023-08-12T00:16:32;6.22;;;4.13;;
61702;SDS011;47622;47.726;3.298;2023-08-12T00:18:58;5.85;;;3.53;;
61702;SDS011;47622;47.726;3.298;2023-08-12T00:21:24;7.28;;;3.67;;
61702;SDS011;47622;47.726;3.298;2023-08-12T00:23:50;6.15;;;3.47;;
61702;SDS011;47622;47.726;3.298;2023-08-12T00:26:17;7.70;;;4.00;;
61702;SDS011;47622;47.726;3.298;2023-08-12T00:28:43;7.63;;;4.20;;
61702;SDS011;47622;47.726;3.298;2023-08-12T00:31:08;10.30;;;3.95;;
61702;SDS011;47622;47.726;3.298;2023-08-12T00:33:34;8.23;;;3.58;;
61702;SDS011;47622;47.726;3.298;2023-08-12T00:35:59;6.15;;;3.58;;
61702;SDS011;47622;47.726;3.298;2023-08-12T00:38:25;10.43;;;3.90;;
61702;SDS011;47622;47.726;3.298;2023-08-12T00:40:53;8.40;;;3.88;;
61702;SDS011;47622;47.726;3.298;2023-08-12T00:43:18;7.97;;;4.07;;
61702;SDS011;47622;47.726;3.298;2023-08-12T00:45:44;6.93;;;3.58;;
61702;SDS011;47622;47.726;3.298;2023-08-12T00:48:10;6.38;;;4.00;;
61702;SDS011;47622;47.726;3.298;2023-08-12T00:50:36;7.10;;;4.20;;
61702;SDS011;47622;47.726;3.298;2023-08-12T00:53:02;9.10;;;4.25;;
61702;SDS011;47622;47.726;3.298;2023-08-12T00:55:33;8.55;;;4.43;;
61702;SDS011;47622;47.726;3.298;2023-08-12T00:58:00;6.75;;;4.10;;
61702;SDS011;47622;47.726;3.298;2023-08-12T01:00:27;7.10;;;3.85;;
61702;SDS011;47622;47.726;3.298;2023-08-12T01:02:52;11.13;;;4.00;;
61702;SDS011;47622;47.726;3.298;2023-08-12T01:05:21;7.88;;;3.90;;
61702;SDS011;47622;47.726;3.298;2023-08-12T01:07:47;6.80;;;3.85;;
61702;SDS011;47622;47.726;3.298;2023-08-12T01:10:13;11.48;;;4.45;;
61702;SDS011;47622;47.726;3.298;2023-08-12T01:12:54;6.57;;;4.18;;
61702;SDS011;47622;47.726;3.298;2023-08-12T01:15:32;9.02;;;4.13;;
61702;SDS011;47622;47.726;3.298;2023-08-12T01:17:59;7.97;;;3.80;;
61702;SDS011;47622;47.726;3.298;2023-08-12T01:20:25;5.50;;;3.55;;
61702;SDS011;47622;47.726;3.298;2023-08-12T01:22:59;7.60;;;3.75;;
61702;SDS011;47622;47.726;3.298;2023-08-12T01:25:39;7.32;;;3.80;;
61702;SDS011;47622;47.726;3.298;2023-08-12T01:28:05;7.30;;;4.00;;
61702;SDS011;47622;47.726;3.298;2023-08-12T01:30:32;8.57;;;4.03;;
61702;SDS011;47622;47.726;3.298;2023-08-12T01:33:07;6.13;;;3.55;;
61702;SDS011;47622;47.726;3.298;2023-08-12T01:35:40;8.52;;;3.80;;
61702;SDS011;47622;47.726;3.298;2023-08-12T01:38:12;6.13;;;3.45;;
61702;SDS011;47622;47.726;3.298;2023-08-12T01:40:38;9.07;;;3.97;;
61702;SDS011;47622;47.726;3.298;2023-08-12T01:43:05;7.55;;;4.18;;
61702;SDS011;47622;47.726;3.298;2023-08-12T01:45:33;7.63;;;4.03;;
61702;SDS011;47622;47.726;3.298;2023-08-12T01:47:59;8.52;;;4.00;;
61702;SDS011;47622;47.726;3.298;2023-08-12T01:50:24;6.55;;;3.72;;
61702;SDS011;47622;47.726;3.298;2023-08-12T01:52:51;7.95;;;4.22;;
61702;SDS011;47622;47.726;3.298;2023-08-12T01:55:16;6.47;;;3.67;;
61702;SDS011;47622;47.726;3.298;2023-08-12T01:57:42;8.10;;;3.85;;
61702;SDS011;47622;47.726;3.298;2023-08-12T02:00:08;5.03;;;3.38;;
61702;SDS011;47622;47.726;3.298;2023-08-12T02:02:34;7.43;;;3.90;;
61702;SDS011;47622;47.726;3.298;2023-08-12T02:04:59;5.63;;;3.58;;
61702;SDS011;47622;47.726;3.298;2023-08-12T02:07:25;8.40;;;3.97;;
61702;SDS011;47622;47.726;3.298;2023-08-12T02:09:51;6.43;;;3.53;;
61702;SDS011;47622;47.726;3.298;2023-08-12T02:12:16;5.20;;;3.45;;
61702;SDS011;47622;47.726;3.298;2023-08-12T02:14:42;9.73;;;3.53;;
61702;SDS011;47622;47.726;3.298;2023-08-12T02:17:07;5.47;;;3.53;;
61702;SDS011;47622;47.726;3.298;2023-08-12T02:19:33;5.25;;;3.60;;
61702;SDS011;47622;47.726;3.298;2023-08-12T02:22:02;6.47;;;3.83;;
61702;SDS011;47622;47.726;3.298;2023-08-12T02:24:29;8.57;;;3.83;;
61702;SDS011;47622;47.726;3.298;2023-08-12T02:26:55;6.32;;;3.58;;
61702;SDS011;47622;47.726;3.298;2023-08-12T02:29:21;7.22;;;3.53;;
61702;SDS011;47622;47.726;3.298;2023-08-12T02:31:46;5.32;;;3.67;;
61702;SDS011;47622;47.726;3.298;2023-08-12T02:34:12;7.18;;;3.70;;
61702;SDS011;47622;47.726;3.298;2023-08-12T02:36:37;4.38;;;3.35;;
61702;SDS011;47622;47.726;3.298;2023-08-12T02:39:03;7.72;;;3.60;;
61702;SDS011;47622;47.726;3.298;2023-08-12T02:41:30;5.13;;;3.70;;
61702;SDS011;47622;47.726;3.298;2023-08-12T02:43:56;6.95;;;3.50;;
61702;SDS011;47622;47.726;3.298;2023-08-12T02:46:21;4.82;;;3.38;;
61702;SDS011;47622;47.726;3.298;2023-08-12T02:48:47;5.75;;;3.30;;
61702;SDS011;47622;47.726;3.298;2023-08-12T02:51:13;4.88;;;3.70;;
61702;SDS011;47622;47.726;3.298;2023-08-12T02:53:38;6.18;;;3.35;;
61702;SDS011;47622;47.726;3.298;2023-08-12T02:56:04;4.57;;;3.10;;
61702;SDS011;47622;47.726;3.298;2023-08-12T02:58:30;6.38;;;3.88;;
61702;SDS011;47622;47.726;3.298;2023-08-12T03:00:55;7.53;;;3.45;;
61702;SDS011;47622;47.726;3.298;2023-08-12T03:03:21;6.47;;;4.10;;
61702;SDS011;47622;47.726;3.298;2023-08-12T03:05:47;10.05;;;3.58;;
61702;SDS011;47622;47.726;3.298;2023-08-12T03:08:12;7.18;;;3.65;;
61702;SDS011;47622;47.726;3.298;2023-08-12T03:10:38;9.02;;;3.72;;
61702;SDS011;47622;47.726;3.298;2023-08-12T03:13:04;7.15;;;3.70;;
61702;SDS011;47622;47.726;3.298;2023-08-12T03:15:29;4.55;;;3.38;;
61702;SDS011;47622;47.726;3.298;2023-08-12T03:17:56;4.82;;;2.90;;
61702;SDS011;47622;47.726;3.298;2023-08-12T03:20:22;4.13;;;2.95;;
61702;SDS011;47622;47.726;3.298;2023-08-12T03:22:47;5.10;;;3.15;;
61702;SDS011;47622;47.726;3.298;2023-08-12T03:25:13;3.92;;;2.83;;
61702;SDS011;47622;47.726;3.298;2023-08-12T03:27:42;3.97;;;3.08;;
61702;SDS011;47622;47.726;3.298;2023-08-12T03:30:08;5.28;;;3.28;;
61702;SDS011;47622;47.726;3.298;2023-08-12T03:32:34;5.38;;;3.40;;
61702;SDS011;47622;47.726;3.298;2023-08-12T03:35:00;3.50;;;2.80;;
61702;SDS011;47622;47.726;3.298;2023-08-12T03:37:25;5.18;;;3.22;;
61702;SDS011;47622;47.726;3.298;2023-08-12T03:39:51;4.57;;;3.28;;
61702;SDS011;47622;47.726;3.298;2023-08-12T03:42:18;7.82;;;3.90;;
61702;SDS011;47622;47.726;3.298;2023-08-12T03:44:44;9.75;;;4.18;;
61702;SDS011;47622;47.726;3.298;2023-08-12T03:47:09;8.55;;;3.85;;
61702;SDS011;47622;47.726;3.298;2023-08-12T03:49:35;6.05;;;3.58;;
61702;SDS011;47622;47.726;3.298;2023-08-12T03:52:01;7.55;;;4.13;;
61702;SDS011;47622;47.726;3.298;2023-08-12T03:54:27;5.80;;;3.47;;
61702;SDS011;47622;47.726;3.298;2023-08-12T03:56:53;6.05;;;3.70;;
61702;SDS011;47622;47.726;3.298;2023-08-12T03:59:19;4.35;;;3.80;;
61702;SDS011;47622;47.726;3.298;2023-08-12T04:01:44;8.63;;;3.72;;
61702;SDS011;47622;47.726;3.298;2023-08-12T04:04:10;6.93;;;4.10;;
61702;SDS011;47622;47.726;3.298;2023-08-12T04:06:36;7.72;;;4.45;;
61702;SDS011;47622;47.726;3.298;2023-08-12T04:09:02;4.47;;;3.92;;
61702;SDS011;47622;47.726;3.298;2023-08-12T04:11:29;5.75;;;3.80;;
61702;SDS011;47622;47.726;3.298;2023-08-12T04:13:54;5.75;;;3.60;;
61702;SDS011;47622;47.726;3.298;2023-08-12T04:16:20;5.50;;;3.80;;
61702;SDS011;47622;47.726;3.298;2023-08-12T04:18:46;8.05;;;3.90;;
61702;SDS011;47622;47.726;3.298;2023-08-12T04:21:13;8.27;;;4.18;;
61702;SDS011;47622;47.726;3.298;2023-08-12T04:23:39;4.72;;;3.70;;
61702;SDS011;47622;47.726;3.298;2023-08-12T04:26:05;10.65;;;4.03;;
61702;SDS011;47622;47.726;3.298;2023-08-12T04:28:33;5.20;;;3.85;;
61702;SDS011;47622;47.726;3.298;2023-08-12T04:30:58;6.20;;;3.70;;
61702;SDS011;47622;47.726;3.298;2023-08-12T04:33:24;4.22;;;3.67;;
61702;SDS011;47622;47.726;3.298;2023-08-12T04:35:49;9.40;;;3.80;;
61702;SDS011;47622;47.726;3.298;2023-08-12T04:38:17;8.10;;;3.67;;
61702;SDS011;47622;47.726;3.298;2023-08-12T04:40:43;6.07;;;3.75;;
61702;SDS011;47622;47.726;3.298;2023-08-12T04:43:09;6.50;;;4.00;;
61702;SDS011;47622;47.726;3.298;2023-08-12T04:45:36;7.47;;;4.28;;
61702;SDS011;47622;47.726;3.298;2023-08-12T04:48:03;6.38;;;3.88;;
61702;SDS011;47622;47.726;3.298;2023-08-12T04:50:32;6.82;;;3.90;;
61702;SDS011;47622;47.726;3.298;2023-08-12T04:52:59;5.38;;;4.10;;
61702;SDS011;47622;47.726;3.298;2023-08-12T04:55:25;4.72;;;3.70;;
61702;SDS011;47622;47.726;3.298;2023-08-12T04:57:51;7.80;;;3.83;;
61702;SDS011;47622;47.726;3.298;2023-08-12T05:00:16;4.20;;;3.63;;
61702;SDS011;47622;47.726;3.298;2023-08-12T05:02:42;7.50;;;4.30;;
61702;SDS011;47622;47.726;3.298;2023-08-12T05:05:09;5.55;;;3.45;;
61702;SDS011;47622;47.726;3.298;2023-08-12T05:07:35;5.20;;;3.92;;
61702;SDS011;47622;47.726;3.298;2023-08-12T05:10:01;7.85;;;3.67;;
61702;SDS011;47622;47.726;3.298;2023-08-12T05:12:28;8.00;;;3.95;;
61702;SDS011;47622;47.726;3.298;2023-08-12T05:14:53;5.82;;;4.05;;
61702;SDS011;47622;47.726;3.298;2023-08-12T05:17:19;5.93;;;3.90;;
61702;SDS011;47622;47.726;3.298;2023-08-12T05:19:44;4.88;;;3.78;;
61702;SDS011;47622;47.726;3.298;2023-08-12T05:22:11;6.18;;;4.45;;
61702;SDS011;47622;47.726;3.298;2023-08-12T05:24:37;5.93;;;3.97;;
61702;SDS011;47622;47.726;3.298;2023-08-12T05:27:02;5.15;;;3.70;;
61702;SDS011;47622;47.726;3.298;2023-08-12T05:29:29;9.40;;;5.15;;
61702;SDS011;47622;47.726;3.298;2023-08-12T05:31:56;7.05;;;4.45;;
61702;SDS011;47622;47.726;3.298;2023-08-12T05:34:22;6.85;;;4.07;;
61702;SDS011;47622;47.726;3.298;2023-08-12T05:36:47;6.22;;;3.58;;
61702;SDS011;47622;47.726;3.298;2023-08-12T05:39:13;6.85;;;4.28;;
61702;SDS011;47622;47.726;3.298;2023-08-12T05:41:40;8.07;;;4.30;;
61702;SDS011;47622;47.726;3.298;2023-08-12T05:44:06;6.97;;;3.75;;
61702;SDS011;47622;47.726;3.298;2023-08-12T05:46:31;8.75;;;4.50;;
61702;SDS011;47622;47.726;3.298;2023-08-12T05:48:57;6.15;;;4.63;;
61702;SDS011;47622;47.726;3.298;2023-08-12T05:51:23;5.05;;;3.67;;
61702;SDS011;47622;47.726;3.298;2023-08-12T05:53:48;6.63;;;3.95;;
61702;SDS011;47622;47.726;3.298;2023-08-12T05:56:14;8.05;;;3.83;;
61702;SDS011;47622;47.726;3.298;2023-08-12T05:58:39;9.20;;;3.95;;
61702;SDS011;47622;47.726;3.298;2023-08-12T06:01:06;6.85;;;4.00;;
61702;SDS011;47622;47.726;3.298;2023-08-12T06:03:32;7.90;;;3.85;;
61702;SDS011;47622;47.726;3.298;2023-08-12T06:05:58;6.68;;;3.70;;
61702;SDS011;47622;47.726;3.298;2023-08-12T06:08:24;6.30;;;3.88;;
61702;SDS011;47622;47.726;3.298;2023-08-12T06:10:49;6.15;;;3.55;;
61702;SDS011;47622;47.726;3.298;2023-08-12T06:13:15;5.07;;;3.17;;
61702;SDS011;47622;47.726;3.298;2023-08-12T06:15:40;5.97;;;3.90;;
61702;SDS011;47622;47.726;3.298;2023-08-12T06:18:06;7.03;;;4.60;;
61702;SDS011;47622;47.726;3.298;2023-08-12T06:20:32;6.10;;;3.60;;
61702;SDS011;47622;47.726;3.298;2023-08-12T06:22:59;6.97;;;4.28;;
61702;SDS011;47622;47.726;3.298;2023-08-12T06:25:24;6.68;;;3.92;;
61702;SDS011;47622;47.726;3.298;2023-08-12T06:27:51;5.82;;;3.40;;
61702;SDS011;47622;47.726;3.298;2023-08-12T06:30:16;5.53;;;3.45;;
61702;SDS011;47622;47.726;3.298;2023-08-12T06:32:42;8.40;;;4.38;;
61702;SDS011;47622;47.726;3.298;2023-08-12T06:35:08;6.85;;;3.85;;
61702;SDS011;47622;47.726;3.298;2023-08-12T06:37:34;7.85;;;5.05;;
61702;SDS011;47622;47.726;3.298;2023-08-12T06:39:59;6.55;;;4.00;;
61702;SDS011;47622;47.726;3.298;2023-08-12T06:42:25;5.25;;;3.65;;
61702;SDS011;47622;47.726;3.298;2023-08-12T06:44:54;7.65;;;3.63;;
61702;SDS011;47622;47.726;3.298;2023-08-12T06:47:21;6.57;;;4.05;;
61702;SDS011;47622;47.726;3.298;2023-08-12T06:49:47;6.47;;;3.80;;
61702;SDS011;47622;47.726;3.298;2023-08-12T06:52:12;6.68;;;3.70;;
61702;SDS011;47622;47.726;3.298;2023-08-12T06:54:38;5.22;;;3.17;;
61702;SDS011;47622;47.726;3.298;2023-08-12T06:57:04;7.00;;;3.65;;
61702;SDS011;47622;47.726;3.298;2023-08-12T06:59:30;8.73;;;4.35;;
61702;SDS011;47622;47.726;3.298;2023-08-12T07:01:55;9.55;;;3.95;;
61702;SDS011;47622;47.726;3.298;2023-08-12T07:04:21;6.32;;;3.42;;
61702;SDS011;47622;47.726;3.298;2023-08-12T07:06:47;7.85;;;3.75;;
61702;SDS011;47622;47.726;3.298;2023-08-12T07:09:12;6.00;;;3.40;;
61702;SDS011;47622;47.726;3.298;2023-08-12T07:11:38;4.93;;;3.40;;
61702;SDS011;47622;47.726;3.298;2023-08-12T07:14:04;5.97;;;3.38;;
61702;SDS011;47622;47.726;3.298;2023-08-12T07:16:29;6.90;;;3.20;;
61702;SDS011;47622;47.726;3.298;2023-08-12T07:18:55;4.55;;;3.10;;
61702;SDS011;47622;47.726;3.298;2023-08-12T07:21:20;5.15;;;3.25;;
61702;SDS011;47622;47.726;3.298;2023-08-12T07:23:46;6.43;;;3.25;;
61702;SDS011;47622;47.726;3.298;2023-08-12T07:26:11;9.98;;;4.10;;
61702;SDS011;47622;47.726;3.298;2023-08-12T07:28:37;8.18;;;4.03;;
61702;SDS011;47622;47.726;3.298;2023-08-12T07:31:03;6.85;;;4.32;;
61702;SDS011;47622;47.726;3.298;2023-08-12T07:33:28;6.28;;;4.13;;
61702;SDS011;47622;47.726;3.298;2023-08-12T07:35:54;7.55;;;4.10;;
61702;SDS011;47622;47.726;3.298;2023-08-12T07:38:19;8.20;;;4.00;;
61702;SDS011;47622;47.726;3.298;2023-08-12T07:40:45;8.65;;;4.72;;
61702;SDS011;47622;47.726;3.298;2023-08-12T07:43:11;11.13;;;4.60;;
61702;SDS011;47622;47.726;3.298;2023-08-12T07:45:36;7.38;;;4.22;;
61702;SDS011;47622;47.726;3.298;2023-08-12T07:48:02;9.02;;;4.40;;
61702;SDS011;47622;47.726;3.298;2023-08-12T07:50:28;7.20;;;4.10;;
61702;SDS011;47622;47.726;3.298;2023-08-12T07:52:54;7.45;;;4.47;;
61702;SDS011;47622;47.726;3.298;2023-08-12T07:55:20;7.53;;;4.28;;
61702;SDS011;47622;47.726;3.298;2023-08-12T07:57:45;10.52;;;4.40;;
61702;SDS011;47622;47.726;3.298;2023-08-12T08:00:11;7.07;;;4.28;;
61702;SDS011;47622;47.726;3.298;2023-08-12T08:02:37;8.85;;;4.68;;
61702;SDS011;47622;47.726;3.298;2023-08-12T08:05:04;6.65;;;4.10;;
61702;SDS011;47622;47.726;3.298;2023-08-12T08:07:30;5.07;;;3.75;;
61702;SDS011;47622;47.726;3.298;2023-08-12T08:09:56;9.93;;;4.07;;
61702;SDS011;47622;47.726;3.298;2023-08-12T08:12:21;7.15;;;4.45;;
61702;SDS011;47622;47.726;3.298;2023-08-12T08:14:47;7.57;;;4.82;;
61702;SDS011;47622;47.726;3.298;2023-08-12T08:17:12;6.35;;;3.95;;
61702;SDS011;47622;47.726;3.298;2023-08-12T08:19:38;7.28;;;4.10;;
61702;SDS011;47622;47.726;3.298;2023-08-12T08:22:03;6.53;;;3.63;;
61702;SDS011;47622;47.726;3.298;2023-08-12T08:24:30;5.70;;;3.60;;
61702;SDS011;47622;47.726;3.298;2023-08-12T08:26:56;6.72;;;3.72;;
61702;SDS011;47622;47.726;3.298;2023-08-12T08:29:22;8.95;;;4.63;;
61702;SDS011;47622;47.726;3.298;2023-08-12T08:31:48;5.32;;;4.20;;
61702;SDS011;47622;47.726;3.298;2023-08-12T08:34:15;6.68;;;4.35;;
61702;SDS011;47622;47.726;3.298;2023-08-12T08:36:42;6.97;;;3.83;;
61702;SDS011;47622;47.726;3.298;2023-08-12T08:39:08;4.85;;;3.90;;
61702;SDS011;47622;47.726;3.298;2023-08-12T08:41:35;6.85;;;3.60;;
61702;SDS011;47622;47.726;3.298;2023-08-12T08:44:06;5.78;;;3.38;;
61702;SDS011;47622;47.726;3.298;2023-08-12T08:46:33;5.30;;;3.42;;
61702;SDS011;47622;47.726;3.298;2023-08-12T08:48:59;6.28;;;3.95;;
61702;SDS011;47622;47.726;3.298;2023-08-12T08:51:26;7.15;;;3.75;;
61702;SDS011;47622;47.726;3.298;2023-08-12T08:53:54;6.07;;;4.35;;
61702;SDS011;47622;47.726;3.298;2023-08-12T08:56:20;6.63;;;3.42;;
61702;SDS011;47622;47.726;3.298;2023-08-12T08:58:47;6.00;;;3.40;;
61702;SDS011;47622;47.726;3.298;2023-08-12T09:01:12;3.88;;;3.45;;
61702;SDS011;47622;47.726;3.298;2023-08-12T09:03:40;6.60;;;4.15;;
61702;SDS011;47622;47.726;3.298;2023-08-12T09:06:07;8.90;;;4.10;;
61702;SDS011;47622;47.726;3.298;2023-08-12T09:08:33;8.50;;;4.00;;
61702;SDS011;47622;47.726;3.298;2023-08-12T09:11:02;4.93;;;3.60;;
61702;SDS011;47622;47.726;3.298;2023-08-12T09:13:29;6.50;;;3.75;;
61702;SDS011;47622;47.726;3.298;2023-08-12T09:15:56;5.25;;;4.03;;
61702;SDS011;47622;47.726;3.298;2023-08-12T09:18:21;5.47;;;3.65;;
61702;SDS011;47622;47.726;3.298;2023-08-12T09:20:50;7.85;;;4.28;;
61702;SDS011;47622;47.726;3.298;2023-08-12T09:23:16;7.85;;;3.78;;
61702;SDS011;47622;47.726;3.298;2023-08-12T09:25:43;8.82;;;3.88;;
61702;SDS011;47622;47.726;3.298;2023-08-12T09:28:09;5.80;;;3.50;;
61702;SDS011;47622;47.726;3.298;2023-08-12T09:30:35;9.32;;;3.53;;
61702;SDS011;47622;47.726;3.298;2023-08-12T09:33:04;7.97;;;4.00;;
61702;SDS011;47622;47.726;3.298;2023-08-12T09:35:33;7.45;;;3.92;;
61702;SDS011;47622;47.726;3.298;2023-08-12T09:38:03;6.72;;;3.85;;
61702;SDS011;47622;47.726;3.298;2023-08-12T09:40:31;4.82;;;3.55;;
61702;SDS011;47622;47.726;3.298;2023-08-12T09:42:58;4.22;;;3.40;;
61702;SDS011;47622;47.726;3.298;2023-08-12T09:45:25;3.47;;;3.00;;
61702;SDS011;47622;47.726;3.298;2023-08-12T09:47:51;6.10;;;3.30;;
61702;SDS011;47622;47.726;3.298;2023-08-12T09:50:21;8.13;;;4.20;;
61702;SDS011;47622;47.726;3.298;2023-08-12T09:52:48;6.80;;;3.75;;
61702;SDS011;47622;47.726;3.298;2023-08-12T09:55:16;8.48;;;4.18;;
61702;SDS011;47622;47.726;3.298;2023-08-12T09:57:43;5.55;;;3.80;;
61702;SDS011;47622;47.726;3.298;2023-08-12T10:00:10;5.63;;;4.05;;
61702;SDS011;47622;47.726;3.298;2023-08-12T10:02:42;4.65;;;3.78;;
61702;SDS011;47622;47.726;3.298;2023-08-12T10:05:13;5.32;;;4.07;;
61702;SDS011;47622;47.726;3.298;2023-08-12T10:07:44;5.30;;;3.40;;
61702;SDS011;47622;47.726;3.298;2023-08-12T10:10:11;4.60;;;3.78;;
61702;SDS011;47622;47.726;3.298;2023-08-12T10:12:38;5.63;;;4.25;;
61702;SDS011;47622;47.726;3.298;2023-08-12T10:15:05;7.60;;;4.07;;
61702;SDS011;47622;47.726;3.298;2023-08-12T10:17:32;5.20;;;3.88;;
61702;SDS011;47622;47.726;3.298;2023-08-12T10:20:00;6.93;;;3.92;;
61702;SDS011;47622;47.726;3.298;2023-08-12T10:22:29;6.03;;;3.80;;
61702;SDS011;47622;47.726;3.298;2023-08-12T10:24:59;6.15;;;3.55;;
61702;SDS011;47622;47.726;3.298;2023-08-12T10:27:27;5.53;;;3.83;;
61702;SDS011;47622;47.726;3.298;2023-08-12T10:29:56;4.28;;;3.38;;
61702;SDS011;47622;47.726;3.298;2023-08-12T10:32:24;5.78;;;3.60;;
61702;SDS011;47622;47.726;3.298;2023-08-12T10:34:55;6.30;;;3.30;;
61702;SDS011;47622;47.726;3.298;2023-08-12T10:37:22;4.53;;;3.38;;
61702;SDS011;47622;47.726;3.298;2023-08-12T10:39:49;8.73;;;3.22;;
61702;SDS011;47622;47.726;3.298;2023-08-12T10:45:07;4.70;;;2.90;;
61702;SDS011;47622;47.726;3.298;2023-08-12T10:47:38;5.95;;;2.72;;
61702;SDS011;47622;47.726;3.298;2023-08-12T10:50:18;4.55;;;2.70;;
61702;SDS011;47622;47.726;3.298;2023-08-12T10:52:48;3.70;;;2.45;;
61702;SDS011;47622;47.726;3.298;2023-08-12T10:55:20;3.30;;;2.40;;
61702;SDS011;47622;47.726;3.298;2023-08-12T10:57:48;4.45;;;2.20;;
61702;SDS011;47622;47.726;3.298;2023-08-12T11:00:18;1.70;;;1.60;;
61702;SDS011;47622;47.726;3.298;2023-08-12T11:02:53;5.75;;;2.10;;
61702;SDS011;47622;47.726;3.298;2023-08-12T11:05:21;4.03;;;1.98;;
61702;SDS011;47622;47.726;3.298;2023-08-12T11:07:57;2.65;;;1.70;;
61702;SDS011;47622;47.726;3.298;2023-08-12T11:10:27;2.47;;;1.50;;
61702;SDS011;47622;47.726;3.298;2023-08-12T11:12:56;1.80;;;1.20;;
61702;SDS011;47622;47.726;3.298;2023-08-12T11:18:08;3.47;;;1.00;;
61702;SDS011;47622;47.726;3.298;2023-08-12T11:20:39;1.13;;;0.82;;
61702;SDS011;47622;47.726;3.298;2023-08-12T11:23:05;0.77;;;0.60;;
61702;SDS011;47622;47.726;3.298;2023-08-12T11:25:32;1.02;;;0.63;;
61702;SDS011;47622;47.726;3.298;2023-08-12T11:27:59;0.80;;;0.40;;
61702;SDS011;47622;47.726;3.298;2023-08-12T11:30:25;0.70;;;0.50;;
61702;SDS011;47622;47.726;3.298;2023-08-12T11:32:52;0.50;;;0.50;;
61702;SDS011;47622;47.726;3.298;2023-08-12T11:35:18;0.40;;;0.40;;
61702;SDS011;47622;47.726;3.298;2023-08-12T11:37:46;0.57;;;0.57;;
61702;SDS011;47622;47.726;3.298;2023-08-12T11:40:15;1.75;;;0.60;;
61702;SDS011;47622;47.726;3.298;2023-08-12T11:42:46;0.80;;;0.40;;
61702;SDS011;47622;47.726;3.298;2023-08-12T11:45:16;0.68;;;0.40;;
61702;SDS011;47622;47.726;3.298;2023-08-12T11:50:17;1.05;;;0.40;;
61702;SDS011;47622;47.726;3.298;2023-08-12T11:52:44;1.10;;;0.40;;
61702;SDS011;47622;47.726;3.298;2023-08-12T11:55:09;3.60;;;0.35;;
61702;SDS011;47622;47.726;3.298;2023-08-12T11:57:35;0.40;;;0.40;;
61702;SDS011;47622;47.726;3.298;2023-08-12T12:00:02;2.30;;;0.43;;
61702;SDS011;47622;47.726;3.298;2023-08-12T12:02:53;0.85;;;0.35;;
61702;SDS011;47622;47.726;3.298;2023-08-12T12:05:23;1.85;;;0.47;;
61702;SDS011;47622;47.726;3.298;2023-08-12T12:07:51;0.60;;;0.60;;
61702;SDS011;47622;47.726;3.298;2023-08-12T12:10:18;0.43;;;0.43;;
61702;SDS011;47622;47.726;3.298;2023-08-12T12:12:44;0.70;;;0.60;;
61702;SDS011;47622;47.726;3.298;2023-08-12T12:15:12;2.35;;;0.50;;
61702;SDS011;47622;47.726;3.298;2023-08-12T12:17:40;0.70;;;0.50;;
61702;SDS011;47622;47.726;3.298;2023-08-12T12:20:06;0.40;;;0.40;;
61702;SDS011;47622;47.726;3.298;2023-08-12T12:22:35;1.63;;;0.50;;
61702;SDS011;47622;47.726;3.298;2023-08-12T12:25:11;0.40;;;0.40;;
61702;SDS011;47622;47.726;3.298;2023-08-12T12:27:38;1.55;;;0.38;;
61702;SDS011;47622;47.726;3.298;2023-08-12T12:30:07;0.57;;;0.45;;
61702;SDS011;47622;47.726;3.298;2023-08-12T12:32:34;1.23;;;0.50;;
61702;SDS011;47622;47.726;3.298;2023-08-12T12:34:59;0.75;;;0.55;;
61702;SDS011;47622;47.726;3.298;2023-08-12T12:37:25;0.40;;;0.40;;
61702;SDS011;47622;47.726;3.298;2023-08-12T12:39:51;0.38;;;0.38;;
61702;SDS011;47622;47.726;3.298;2023-08-12T12:42:16;0.40;;;0.30;;
61702;SDS011;47622;47.726;3.298;2023-08-12T12:44:42;1.38;;;0.30;;
61702;SDS011;47622;47.726;3.298;2023-08-12T12:47:07;0.50;;;0.50;;
61702;SDS011;47622;47.726;3.298;2023-08-12T12:49:35;1.45;;;0.30;;
61702;SDS011;47622;47.726;3.298;2023-08-12T12:52:01;1.90;;;0.50;;
61702;SDS011;47622;47.726;3.298;2023-08-12T12:54:26;0.50;;;0.40;;
61702;SDS011;47622;47.726;3.298;2023-08-12T12:56:52;0.30;;;0.30;;
61702;SDS011;47622;47.726;3.298;2023-08-12T12:59:18;1.52;;;0.30;;
61702;SDS011;47622;47.726;3.298;2023-08-12T13:01:44;1.23;;;0.30;;
61702;SDS011;47622;47.726;3.298;2023-08-12T13:04:10;0.47;;;0.47;;
61702;SDS011;47622;47.726;3.298;2023-08-12T13:06:36;0.35;;;0.35;;
61702;SDS011;47622;47.726;3.298;2023-08-12T13:09:02;2.05;;;0.40;;
61702;SDS011;47622;47.726;3.298;2023-08-12T13:11:28;1.38;;;0.32;;
61702;SDS011;47622;47.726;3.298;2023-08-12T13:13:54;4.05;;;0.50;;
61702;SDS011;47622;47.726;3.298;2023-08-12T13:16:20;1.25;;;0.50;;
61702;SDS011;47622;47.726;3.298;2023-08-12T13:18:46;0.40;;;0.40;;
61702;SDS011;47622;47.726;3.298;2023-08-12T13:21:11;0.43;;;0.30;;
61702;SDS011;47622;47.726;3.298;2023-08-12T13:23:37;0.43;;;0.40;;
61702;SDS011;47622;47.726;3.298;2023-08-12T13:26:03;0.30;;;0.30;;
61702;SDS011;47622;47.726;3.298;2023-08-12T13:28:28;0.50;;;0.30;;
61702;SDS011;47622;47.726;3.298;2023-08-12T13:30:55;0.32;;;0.32;;
61702;SDS011;47622;47.726;3.298;2023-08-12T13:33:20;0.50;;;0.50;;
61702;SDS011;47622;47.726;3.298;2023-08-12T13:35:46;1.52;;;0.32;;
61702;SDS011;47622;47.726;3.298;2023-08-12T13:38:12;0.30;;;0.30;;
61702;SDS011;47622;47.726;3.298;2023-08-12T13:40:37;3.70;;;0.40;;
61702;SDS011;47622;47.726;3.298;2023-08-12T13:43:03;0.30;;;0.30;;
61702;SDS011;47622;47.726;3.298;2023-08-12T13:45:28;0.57;;;0.40;;
61702;SDS011;47622;47.726;3.298;2023-08-12T13:47:54;1.13;;;0.28;;
61702;SDS011;47622;47.726;3.298;2023-08-12T13:50:20;0.52;;;0.43;;
61702;SDS011;47622;47.726;3.298;2023-08-12T13:52:46;0.40;;;0.40;;
61702;SDS011;47622;47.726;3.298;2023-08-12T13:55:15;0.57;;;0.40;;
61702;SDS011;47622;47.726;3.298;2023-08-12T13:57:41;1.25;;;0.50;;
61702;SDS011;47622;47.726;3.298;2023-08-12T14:00:07;0.55;;;0.40;;
61702;SDS011;47622;47.726;3.298;2023-08-12T14:02:38;4.05;;;0.68;;
61702;SDS011;47622;47.726;3.298;2023-08-12T14:05:05;0.40;;;0.40;;
61702;SDS011;47622;47.726;3.298;2023-08-12T14:07:31;0.47;;;0.45;;
61702;SDS011;47622;47.726;3.298;2023-08-12T14:10:00;1.88;;;0.50;;
61702;SDS011;47622;47.726;3.298;2023-08-12T14:12:25;0.43;;;0.40;;
61702;SDS011;47622;47.726;3.298;2023-08-12T14:14:51;0.40;;;0.40;;
61702;SDS011;47622;47.726;3.298;2023-08-12T14:17:17;0.43;;;0.40;;
61702;SDS011;47622;47.726;3.298;2023-08-12T14:19:44;0.80;;;0.40;;
61702;SDS011;47622;47.726;3.298;2023-08-12T14:22:14;0.60;;;0.40;;
61702;SDS011;47622;47.726;3.298;2023-08-12T14:24:39;0.43;;;0.40;;
61702;SDS011;47622;47.726;3.298;2023-08-12T14:27:05;0.90;;;0.50;;
61702;SDS011;47622;47.726;3.298;2023-08-12T14:29:31;0.40;;;0.40;;
61702;SDS011;47622;47.726;3.298;2023-08-12T14:31:56;0.43;;;0.40;;
61702;SDS011;47622;47.726;3.298;2023-08-12T14:34:23;1.52;;;0.55;;
61702;SDS011;47622;47.726;3.298;2023-08-12T14:36:48;1.35;;;0.50;;
61702;SDS011;47622;47.726;3.298;2023-08-12T14:39:14;0.52;;;0.52;;
61702;SDS011;47622;47.726;3.298;2023-08-12T14:41:40;1.55;;;0.60;;
61702;SDS011;47622;47.726;3.298;2023-08-12T14:44:05;1.27;;;0.80;;
61702;SDS011;47622;47.726;3.298;2023-08-12T14:46:31;2.20;;;0.50;;
61702;SDS011;47622;47.726;3.298;2023-08-12T14:48:56;1.08;;;0.68;;
61702;SDS011;47622;47.726;3.298;2023-08-12T14:51:22;0.80;;;0.70;;
61702;SDS011;47622;47.726;3.298;2023-08-12T14:53:48;1.63;;;0.70;;